createdAt,value
2023-04-16T00:03:31.233Z,26.33
2023-04-16T00:07:33.118Z,25.73
2023-04-16T00:11:34.722Z,27.80
2023-04-16T00:15:36.618Z,27.17
2023-04-16T00:19:38.636Z,28.92
2023-04-16T00:23:40.341Z,29.58
2023-04-16T00:27:41.981Z,28.25
2023-04-16T00:31:43.629Z,30.10
2023-04-16T00:35:46.654Z,28.55
2023-04-16T00:39:48.317Z,29.48
2023-04-16T00:43:50.764Z,29.17
2023-04-16T00:47:52.898Z,30.37
2023-04-16T00:51:54.758Z,29.20
2023-04-16T00:55:57.393Z,30.50
2023-04-16T00:59:59.111Z,29.70
2023-04-16T01:04:01.055Z,30.88
2023-04-16T01:08:02.801Z,31.48
2023-04-16T01:12:04.611Z,32.47
2023-04-16T01:16:10.592Z,32.03
2023-04-16T01:20:12.270Z,29.80
2023-04-16T01:24:13.961Z,30.12
2023-04-16T01:28:15.760Z,28.98
2023-04-16T01:32:17.401Z,27.05
2023-04-16T01:36:19.114Z,28.95
2023-04-16T01:40:20.821Z,26.77
2023-04-16T01:44:23.106Z,28.90
2023-04-16T01:48:24.810Z,29.67
2023-04-16T01:52:26.542Z,31.73
2023-04-16T01:56:28.239Z,32.13
2023-04-16T02:00:29.990Z,31.52
2023-04-16T02:04:32.212Z,33.38
2023-04-16T02:08:33.920Z,33.45
2023-04-16T02:12:35.892Z,31.27
2023-04-16T02:16:37.849Z,32.67
2023-04-16T02:20:44.286Z,33.53
2023-04-16T02:24:45.995Z,33.03
2023-04-16T02:28:47.636Z,34.38
2023-04-16T02:32:49.648Z,32.90
2023-04-16T02:36:51.603Z,33.65
2023-04-16T02:40:53.514Z,34.22
2023-04-16T02:44:55.194Z,35.10
2023-04-16T02:48:56.892Z,34.28
2023-04-16T02:52:58.979Z,32.92
2023-04-16T02:57:00.729Z,34.20
2023-04-16T03:01:02.457Z,30.58
2023-04-16T03:05:04.546Z,31.90
2023-04-16T03:09:06.222Z,33.72
2023-04-16T03:13:08.089Z,31.02
2023-04-16T03:17:09.793Z,32.10
2023-04-16T03:21:11.515Z,29.65
2023-04-16T03:25:13.782Z,28.33
2023-04-16T03:29:15.465Z,26.65
2023-04-16T03:33:17.105Z,25.42
2023-04-16T03:37:18.865Z,25.62
2023-04-16T03:41:20.563Z,25.92
2023-04-16T03:45:22.241Z,26.85
2023-04-16T03:49:23.990Z,26.62
2023-04-16T03:53:25.815Z,25.88
2023-04-16T03:57:27.438Z,25.23
2023-04-16T04:01:29.071Z,25.45
2023-04-16T04:05:30.754Z,26.95
2023-04-16T04:09:33.933Z,25.42
2023-04-16T04:13:35.696Z,26.27
2023-04-16T04:17:37.451Z,27.10
2023-04-16T04:21:39.124Z,25.85
2023-04-16T04:25:40.751Z,25.95
2023-04-16T04:29:42.391Z,26.73
2023-04-16T04:33:44.171Z,26.30
2023-04-16T04:37:45.894Z,27.73
2023-04-16T04:41:48.167Z,27.35
2023-04-16T04:45:49.977Z,26.52
2023-04-16T04:49:51.607Z,28.87
2023-04-16T04:53:53.334Z,28.05
2023-04-16T04:57:54.989Z,29.60
2023-04-16T05:01:56.701Z,29.63
2023-04-16T05:05:58.406Z,28.73
2023-04-16T05:10:00.501Z,28.55
2023-04-16T05:14:02.194Z,27.73
2023-04-16T05:18:04.329Z,27.95
2023-04-16T05:22:06.213Z,27.55
2023-04-16T05:26:07.832Z,27.48
2023-04-16T05:30:09.981Z,28.08
2023-04-16T05:34:11.742Z,27.50
2023-04-16T05:38:13.415Z,26.00
2023-04-16T05:42:15.304Z,25.90
2023-04-16T05:46:17.026Z,25.88
2023-04-16T05:50:18.802Z,25.75
2023-04-16T05:54:20.535Z,24.80
2023-04-16T05:58:22.215Z,24.80
2023-04-16T06:02:24.032Z,24.02
2023-04-16T06:06:27.282Z,27.62
2023-04-16T06:10:29.231Z,26.37
2023-04-16T06:14:31.070Z,24.77
2023-04-16T06:18:32.754Z,24.83
2023-04-16T06:22:34.750Z,24.80
2023-04-16T06:26:36.464Z,24.95
2023-04-16T06:30:39.268Z,24.37
2023-04-16T06:34:41.405Z,25.75
2023-04-16T06:38:43.515Z,24.40
2023-04-16T06:42:45.817Z,26.00
2023-04-16T06:46:47.641Z,24.33
2023-04-16T06:50:49.426Z,23.45
2023-04-16T06:54:51.160Z,24.15
2023-04-16T06:58:52.802Z,21.80
2023-04-16T07:02:56.983Z,19.73
2023-04-16T07:06:59.954Z,20.23
2023-04-16T07:11:01.597Z,19.92
2023-04-16T07:15:03.369Z,21.00
2023-04-16T07:19:05.331Z,21.95
2023-04-16T07:23:06.993Z,21.95
2023-04-16T07:27:08.653Z,20.33
2023-04-16T07:31:10.329Z,21.73
2023-04-16T07:35:11.944Z,21.85
2023-04-16T07:39:13.599Z,22.23
2023-04-16T07:43:16.553Z,21.15
2023-04-16T07:47:18.298Z,21.73
2023-04-16T07:51:20.359Z,22.20
2023-04-16T07:55:22.102Z,21.35
2023-04-16T07:59:24.559Z,21.27
2023-04-16T08:03:26.767Z,21.20
2023-04-16T08:07:28.638Z,22.50
2023-04-16T08:11:30.390Z,21.92
2023-04-16T08:15:32.297Z,21.37
2023-04-16T08:19:33.962Z,21.95
2023-04-16T08:23:35.871Z,21.40
2023-04-16T08:27:37.576Z,20.50
2023-04-16T08:31:39.469Z,20.15
2023-04-16T08:35:41.246Z,20.35
2023-04-16T08:39:42.920Z,20.42
2023-04-16T08:43:45.376Z,21.45
2023-04-16T08:47:49.784Z,19.52
2023-04-16T08:51:55.800Z,19.70
2023-04-16T08:56:01.589Z,20.10
2023-04-16T09:00:03.935Z,20.83
2023-04-16T09:04:07.289Z,20.02
2023-04-16T09:08:09.157Z,19.67
2023-04-16T09:12:10.984Z,22.35
2023-04-16T09:16:14.090Z,19.52
2023-04-16T09:20:15.917Z,19.80
2023-04-16T09:24:18.460Z,18.95
2023-04-16T09:28:43.624Z,19.83
2023-04-16T09:32:45.350Z,19.30
2023-04-16T09:36:47.216Z,19.48
2023-04-16T09:41:06.200Z,24.12
2023-04-16T09:45:08.318Z,18.67
2023-04-16T09:49:17.024Z,17.77
2023-04-16T09:53:29.329Z,19.77
2023-04-16T09:57:31.083Z,19.17
2023-04-16T10:01:32.873Z,20.58
2023-04-16T10:05:34.706Z,19.70
2023-04-16T10:09:39.544Z,18.65
2023-04-16T10:13:41.222Z,17.62
2023-04-16T10:17:43.407Z,17.87
2023-04-16T10:21:46.225Z,19.40
2023-04-16T10:25:52.131Z,17.27
2023-04-16T10:29:53.989Z,17.70
2023-04-16T10:33:56.668Z,15.63
2023-04-16T10:38:18.294Z,17.15
2023-04-16T10:42:19.959Z,19.77
2023-04-16T10:46:27.066Z,18.37
2023-04-16T10:54:37.352Z,18.58
2023-04-16T10:58:39.264Z,17.87
2023-04-16T11:02:41.559Z,16.58
2023-04-16T11:07:02.260Z,17.73
2023-04-16T11:11:05.546Z,15.35
2023-04-16T11:15:09.567Z,16.17
2023-04-16T11:19:16.981Z,16.90
2023-04-16T11:23:18.654Z,15.15
2023-04-16T11:27:20.643Z,15.80
2023-04-16T11:31:23.377Z,14.87
2023-04-16T11:35:25.346Z,14.75
2023-04-16T11:39:27.070Z,15.25
2023-04-16T11:43:28.839Z,13.88
2023-04-16T11:47:31.524Z,13.40
2023-04-16T11:51:33.454Z,12.18
2023-04-16T11:55:46.931Z,12.00
2023-04-16T12:00:02.297Z,11.85
2023-04-16T12:04:06.279Z,11.70
2023-04-16T12:08:12.318Z,12.50
2023-04-16T12:12:32.100Z,11.57
2023-04-16T12:16:35.903Z,11.63
2023-04-16T12:20:43.918Z,11.65
2023-04-16T12:24:45.527Z,13.05
2023-04-16T12:28:47.223Z,11.85
2023-04-16T12:32:51.856Z,10.57
2023-04-16T12:37:09.519Z,10.65
2023-04-16T12:41:11.208Z,11.25
2023-04-16T12:45:12.868Z,12.45
2023-04-16T12:49:14.580Z,12.20
2023-04-16T12:53:16.274Z,11.07
2023-04-16T12:57:17.926Z,11.55
2023-04-16T13:01:20.272Z,11.05
2023-04-16T13:05:21.986Z,11.02
2023-04-16T13:09:23.890Z,10.93
2023-04-16T13:13:25.702Z,11.23
2023-04-16T13:17:27.526Z,11.05
2023-04-16T13:21:29.235Z,12.30
2023-04-16T13:25:31.595Z,11.73
2023-04-16T13:29:33.394Z,12.35
2023-04-16T13:33:35.139Z,12.25
2023-04-16T13:37:36.789Z,12.00
2023-04-16T13:41:39.007Z,12.27
2023-04-16T13:45:41.370Z,12.73
2023-04-16T13:49:44.026Z,13.07
2023-04-16T13:53:45.838Z,13.10
2023-04-16T13:57:48.004Z,13.88
2023-04-16T14:01:49.822Z,12.95
2023-04-16T14:05:51.565Z,12.70
2023-04-16T14:09:54.119Z,14.05
2023-04-16T14:13:56.019Z,13.18
2023-04-16T14:17:57.702Z,14.15
2023-04-16T14:21:59.532Z,14.00
2023-04-16T14:26:01.257Z,15.00
2023-04-16T14:30:03.132Z,14.00
2023-04-16T14:34:04.840Z,12.90
2023-04-16T14:38:06.518Z,12.55
2023-04-16T14:42:08.221Z,13.43
2023-04-16T14:46:10.283Z,12.55
2023-04-16T14:50:13.035Z,11.75
2023-04-16T14:54:14.809Z,11.70
2023-04-16T14:58:16.449Z,11.63
2023-04-16T15:02:18.355Z,11.07
2023-04-16T15:06:20.284Z,11.52
2023-04-16T15:10:22.065Z,11.43
2023-04-16T15:14:23.963Z,10.05
2023-04-16T15:18:25.700Z,9.98
2023-04-16T15:22:27.391Z,10.80
2023-04-16T15:26:30.178Z,9.90
2023-04-16T15:30:31.830Z,10.07
2023-04-16T15:34:33.522Z,10.02
2023-04-16T15:38:35.529Z,9.60
2023-04-16T15:42:37.211Z,9.35
2023-04-16T15:46:38.997Z,9.90
2023-04-16T15:50:40.841Z,9.52
2023-04-16T15:54:43.094Z,8.90
2023-04-16T15:58:44.782Z,8.88
2023-04-16T16:02:47.159Z,8.90
2023-04-16T16:06:52.687Z,8.55
2023-04-16T16:10:54.614Z,8.52
2023-04-16T16:14:56.621Z,8.55
2023-04-16T16:18:58.398Z,9.25
2023-04-16T16:23:00.443Z,8.57
2023-04-16T16:27:02.127Z,7.70
2023-04-16T16:31:05.710Z,8.60
2023-04-16T16:35:08.918Z,8.07
2023-04-16T16:39:10.888Z,14.10
2023-04-16T16:43:12.750Z,15.35
2023-04-16T16:47:14.547Z,14.35
2023-04-16T16:51:18.709Z,14.77
2023-04-16T16:55:20.835Z,14.73
2023-04-16T16:59:22.525Z,13.93
2023-04-16T17:03:24.292Z,16.25
2023-04-16T17:07:26.232Z,15.35
2023-04-16T17:11:29.126Z,15.48
2023-04-16T17:15:30.930Z,16.33
2023-04-16T17:19:32.646Z,17.62
2023-04-16T17:23:34.338Z,17.77
2023-04-16T17:27:36.148Z,18.10
2023-04-16T17:31:37.849Z,18.65
2023-04-16T17:35:40.355Z,19.12
2023-04-16T17:39:42.559Z,17.85
2023-04-16T17:43:46.476Z,19.00
2023-04-16T17:47:48.147Z,17.55
2023-04-16T17:51:49.890Z,19.42
2023-04-16T17:55:53.602Z,20.20
2023-04-16T17:59:57.094Z,18.98
2023-04-16T18:03:58.958Z,19.20
2023-04-16T18:08:01.036Z,18.95
2023-04-16T18:12:03.006Z,20.20
2023-04-16T18:16:04.902Z,21.00
2023-04-16T18:20:09.130Z,21.60
2023-04-16T18:24:11.260Z,20.15
2023-04-16T18:28:14.265Z,19.12
2023-04-16T18:32:16.234Z,22.62
2023-04-16T18:36:18.142Z,22.15
2023-04-16T18:40:19.844Z,21.35
2023-04-16T18:44:21.479Z,20.70
2023-04-16T18:48:23.185Z,20.85
2023-04-16T18:52:24.873Z,21.67
2023-04-16T18:56:29.651Z,20.10
2023-04-16T19:00:31.668Z,18.65
2023-04-16T19:04:33.519Z,19.83
2023-04-16T19:08:35.389Z,20.25
2023-04-16T19:12:37.107Z,19.02
2023-04-16T19:16:38.981Z,19.98
2023-04-16T19:20:40.995Z,19.95
2023-04-16T19:24:42.640Z,19.45
2023-04-16T19:28:45.508Z,19.10
2023-04-16T19:32:47.316Z,18.60
2023-04-16T19:36:49.000Z,18.23
2023-04-16T19:40:50.651Z,18.15
2023-04-16T19:44:52.412Z,18.08
2023-04-16T19:48:54.099Z,16.12
2023-04-16T19:52:55.796Z,16.10
2023-04-16T19:56:57.490Z,17.65
2023-04-16T20:00:59.300Z,16.27
2023-04-16T20:05:01.621Z,16.98
2023-04-16T20:09:04.532Z,15.95
2023-04-16T20:13:10.160Z,16.50
2023-04-16T20:17:12.013Z,17.20
2023-04-16T20:21:13.785Z,15.88
2023-04-16T20:25:18.846Z,16.67
2023-04-16T20:29:20.569Z,17.60
2023-04-16T20:33:22.232Z,16.83
2023-04-16T20:37:23.884Z,16.02
2023-04-16T20:41:25.499Z,17.12
2023-04-16T20:45:38.172Z,16.65
2023-04-16T20:49:40.163Z,17.77
2023-04-16T20:53:41.799Z,18.05
2023-04-16T20:57:43.538Z,19.10
2023-04-16T21:01:45.563Z,19.23
2023-04-16T21:05:51.710Z,19.25
2023-04-16T21:09:53.315Z,19.62
2023-04-16T21:13:54.933Z,19.05
2023-04-16T21:17:56.610Z,19.65
2023-04-16T21:21:58.375Z,19.30
2023-04-16T21:26:00.185Z,20.00
2023-04-16T21:30:01.862Z,20.58
2023-04-16T21:34:03.749Z,20.75
2023-04-16T21:38:05.575Z,21.85
2023-04-16T21:42:07.214Z,21.92
2023-04-16T21:46:08.907Z,22.95
2023-04-16T21:50:11.134Z,23.80
2023-04-16T21:54:13.212Z,22.83
2023-04-16T21:58:15.524Z,22.95
2023-04-16T22:02:17.289Z,23.80
2023-04-16T22:06:20.238Z,23.80
2023-04-16T22:10:22.553Z,23.98
2023-04-16T22:14:24.632Z,22.45
2023-04-16T22:18:26.358Z,25.27
2023-04-16T22:22:28.039Z,25.90
2023-04-16T22:26:29.723Z,25.25
2023-04-16T22:30:31.426Z,24.85
2023-04-16T22:34:33.125Z,26.17
2023-04-16T22:38:34.794Z,25.92
2023-04-16T22:42:36.531Z,26.37
2023-04-16T22:46:38.269Z,26.12
2023-04-16T22:50:41.067Z,29.15
2023-04-16T22:54:42.757Z,26.80
2023-04-16T22:58:45.453Z,27.37
2023-04-16T23:02:47.472Z,26.15
2023-04-16T23:06:49.235Z,27.35
2023-04-16T23:10:50.957Z,28.62
2023-04-16T23:14:53.013Z,29.85
2023-04-16T23:18:55.044Z,27.23
2023-04-16T23:22:56.667Z,26.65
2023-04-16T23:26:58.375Z,28.30
2023-04-16T23:31:00.261Z,27.37
2023-04-16T23:35:02.110Z,28.38
2023-04-16T23:39:03.817Z,29.65
2023-04-16T23:43:05.550Z,30.55
2023-04-16T23:47:07.208Z,29.80
2023-04-16T23:51:08.816Z,29.37
2023-04-16T23:55:10.512Z,28.95
2023-04-16T23:59:12.776Z,27.20
